sensor_id;sensor_type;location;lat;lon;timestamp;P1;durP1;ratioP1;P2;durP2;ratioP2
59074;SDS011;44860;53.020;6.738;2023-04-15T00:01:24;11.50;;;6.15;;
59074;SDS011;44860;53.020;6.738;2023-04-15T00:03:51;15.02;;;6.70;;
59074;SDS011;44860;53.020;6.738;2023-04-15T00:06:17;9.77;;;5.60;;
59074;SDS011;44860;53.020;6.738;2023-04-15T00:08:44;12.95;;;6.30;;
59074;SDS011;44860;53.020;6.738;2023-04-15T00:11:10;11.82;;;6.45;;
59074;SDS011;44860;53.020;6.738;2023-04-15T00:13:36;11.68;;;6.53;;
59074;SDS011;44860;53.020;6.738;2023-04-15T00:16:03;10.75;;;6.50;;
59074;SDS011;44860;53.020;6.738;2023-04-15T00:18:30;13.55;;;6.60;;
59074;SDS011;44860;53.020;6.738;2023-04-15T00:20:56;10.10;;;6.22;;
59074;SDS011;44860;53.020;6.738;2023-04-15T00:23:23;11.00;;;6.45;;
59074;SDS011;44860;53.020;6.738;2023-04-15T00:25:48;12.63;;;7.00;;
59074;SDS011;44860;53.020;6.738;2023-04-15T00:28:15;15.98;;;6.57;;
59074;SDS011;44860;53.020;6.738;2023-04-15T00:30:41;13.63;;;6.50;;
59074;SDS011;44860;53.020;6.738;2023-04-15T00:33:07;11.38;;;6.75;;
59074;SDS011;44860;53.020;6.738;2023-04-15T00:35:34;12.35;;;6.78;;
59074;SDS011;44860;53.020;6.738;2023-04-15T00:38:01;10.48;;;6.47;;
59074;SDS011;44860;53.020;6.738;2023-04-15T00:40:27;11.50;;;6.57;;
59074;SDS011;44860;53.020;6.738;2023-04-15T00:42:53;11.38;;;6.80;;
59074;SDS011;44860;53.020;6.738;2023-04-15T00:45:19;12.35;;;6.78;;
59074;SDS011;44860;53.020;6.738;2023-04-15T00:47:44;10.50;;;6.95;;
59074;SDS011;44860;53.020;6.738;2023-04-15T00:50:11;11.80;;;7.50;;
59074;SDS011;44860;53.020;6.738;2023-04-15T00:52:37;10.45;;;6.97;;
59074;SDS011;44860;53.020;6.738;2023-04-15T00:55:03;10.95;;;6.85;;
59074;SDS011;44860;53.020;6.738;2023-04-15T00:57:30;12.45;;;7.38;;
59074;SDS011;44860;53.020;6.738;2023-04-15T00:59:56;13.25;;;6.70;;
59074;SDS011;44860;53.020;6.738;2023-04-15T01:02:22;11.57;;;7.03;;
59074;SDS011;44860;53.020;6.738;2023-04-15T01:04:48;12.13;;;7.60;;
59074;SDS011;44860;53.020;6.738;2023-04-15T01:07:14;13.82;;;7.70;;
59074;SDS011;44860;53.020;6.738;2023-04-15T01:09:40;14.23;;;7.75;;
59074;SDS011;44860;53.020;6.738;2023-04-15T01:12:06;13.77;;;7.70;;
59074;SDS011;44860;53.020;6.738;2023-04-15T01:14:36;13.52;;;7.68;;
59074;SDS011;44860;53.020;6.738;2023-04-15T01:17:01;13.23;;;8.00;;
59074;SDS011;44860;53.020;6.738;2023-04-15T01:19:27;11.88;;;7.57;;
59074;SDS011;44860;53.020;6.738;2023-04-15T01:21:53;12.57;;;8.02;;
59074;SDS011;44860;53.020;6.738;2023-04-15T01:24:19;11.68;;;7.88;;
59074;SDS011;44860;53.020;6.738;2023-04-15T01:26:45;13.48;;;7.97;;
59074;SDS011;44860;53.020;6.738;2023-04-15T01:29:11;12.32;;;7.80;;
59074;SDS011;44860;53.020;6.738;2023-04-15T01:31:37;12.48;;;8.23;;
59074;SDS011;44860;53.020;6.738;2023-04-15T01:34:03;14.32;;;8.70;;
59074;SDS011;44860;53.020;6.738;2023-04-15T01:36:28;11.32;;;8.25;;
59074;SDS011;44860;53.020;6.738;2023-04-15T01:38:55;13.57;;;8.57;;
59074;SDS011;44860;53.020;6.738;2023-04-15T01:41:24;12.32;;;8.38;;
59074;SDS011;44860;53.020;6.738;2023-04-15T01:43:51;14.23;;;8.43;;
59074;SDS011;44860;53.020;6.738;2023-04-15T01:46:17;12.25;;;8.15;;
59074;SDS011;44860;53.020;6.738;2023-04-15T01:48:43;13.15;;;8.73;;
59074;SDS011;44860;53.020;6.738;2023-04-15T01:51:08;14.32;;;8.60;;
59074;SDS011;44860;53.020;6.738;2023-04-15T01:53:34;12.25;;;8.00;;
59074;SDS011;44860;53.020;6.738;2023-04-15T01:55:59;12.80;;;8.48;;
59074;SDS011;44860;53.020;6.738;2023-04-15T01:58:25;14.65;;;9.10;;
59074;SDS011;44860;53.020;6.738;2023-04-15T02:00:51;11.98;;;7.95;;
59074;SDS011;44860;53.020;6.738;2023-04-15T02:03:17;12.02;;;8.07;;
59074;SDS011;44860;53.020;6.738;2023-04-15T02:05:42;14.55;;;8.50;;
59074;SDS011;44860;53.020;6.738;2023-04-15T02:08:08;11.32;;;7.90;;
59074;SDS011;44860;53.020;6.738;2023-04-15T02:10:34;13.57;;;8.60;;
59074;SDS011;44860;53.020;6.738;2023-04-15T02:12:59;14.15;;;8.60;;
59074;SDS011;44860;53.020;6.738;2023-04-15T02:15:25;16.70;;;9.60;;
59074;SDS011;44860;53.020;6.738;2023-04-15T02:17:51;14.00;;;8.65;;
59074;SDS011;44860;53.020;6.738;2023-04-15T02:20:19;13.43;;;9.65;;
59074;SDS011;44860;53.020;6.738;2023-04-15T02:22:45;13.18;;;9.25;;
59074;SDS011;44860;53.020;6.738;2023-04-15T02:25:12;14.73;;;8.90;;
59074;SDS011;44860;53.020;6.738;2023-04-15T02:27:39;13.38;;;9.23;;
59074;SDS011;44860;53.020;6.738;2023-04-15T02:30:04;11.80;;;8.77;;
59074;SDS011;44860;53.020;6.738;2023-04-15T02:32:31;14.32;;;9.13;;
59074;SDS011;44860;53.020;6.738;2023-04-15T02:35:04;12.70;;;9.52;;
59074;SDS011;44860;53.020;6.738;2023-04-15T02:37:31;11.75;;;9.02;;
59074;SDS011;44860;53.020;6.738;2023-04-15T02:40:01;13.05;;;9.10;;
59074;SDS011;44860;53.020;6.738;2023-04-15T02:42:27;13.45;;;9.45;;
59074;SDS011;44860;53.020;6.738;2023-04-15T02:44:54;13.35;;;9.30;;
59074;SDS011;44860;53.020;6.738;2023-04-15T02:47:20;12.00;;;9.10;;
59074;SDS011;44860;53.020;6.738;2023-04-15T02:49:46;13.40;;;9.65;;
59074;SDS011;44860;53.020;6.738;2023-04-15T02:52:11;13.10;;;9.65;;
59074;SDS011;44860;53.020;6.738;2023-04-15T02:54:38;11.38;;;8.52;;
59074;SDS011;44860;53.020;6.738;2023-04-15T02:57:03;14.02;;;9.63;;
59074;SDS011;44860;53.020;6.738;2023-04-15T02:59:30;11.13;;;9.00;;
59074;SDS011;44860;53.020;6.738;2023-04-15T03:01:56;13.95;;;9.30;;
59074;SDS011;44860;53.020;6.738;2023-04-15T03:04:25;14.75;;;9.73;;
59074;SDS011;44860;53.020;6.738;2023-04-15T03:06:51;14.35;;;9.93;;
59074;SDS011;44860;53.020;6.738;2023-04-15T03:09:16;12.60;;;9.25;;
59074;SDS011;44860;53.020;6.738;2023-04-15T03:11:42;12.88;;;9.85;;
59074;SDS011;44860;53.020;6.738;2023-04-15T03:14:08;12.55;;;9.20;;
59074;SDS011;44860;53.020;6.738;2023-04-15T03:16:33;11.70;;;8.73;;
59074;SDS011;44860;53.020;6.738;2023-04-15T03:18:59;11.95;;;9.30;;
59074;SDS011;44860;53.020;6.738;2023-04-15T03:21:25;12.32;;;9.23;;
59074;SDS011;44860;53.020;6.738;2023-04-15T03:23:50;11.23;;;9.30;;
59074;SDS011;44860;53.020;6.738;2023-04-15T03:26:26;13.32;;;9.43;;
59074;SDS011;44860;53.020;6.738;2023-04-15T03:28:53;13.88;;;9.68;;
59074;SDS011;44860;53.020;6.738;2023-04-15T03:31:19;12.32;;;9.45;;
59074;SDS011;44860;53.020;6.738;2023-04-15T03:33:45;14.30;;;9.68;;
59074;SDS011;44860;53.020;6.738;2023-04-15T03:36:10;15.20;;;9.90;;
59074;SDS011;44860;53.020;6.738;2023-04-15T03:38:36;13.25;;;10.20;;
59074;SDS011;44860;53.020;6.738;2023-04-15T03:41:02;13.57;;;10.00;;
59074;SDS011;44860;53.020;6.738;2023-04-15T03:43:27;14.27;;;10.27;;
59074;SDS011;44860;53.020;6.738;2023-04-15T03:45:53;12.98;;;9.65;;
59074;SDS011;44860;53.020;6.738;2023-04-15T03:48:19;11.75;;;9.32;;
59074;SDS011;44860;53.020;6.738;2023-04-15T03:50:45;13.55;;;10.48;;
59074;SDS011;44860;53.020;6.738;2023-04-15T03:53:11;15.90;;;10.85;;
59074;SDS011;44860;53.020;6.738;2023-04-15T03:55:36;13.70;;;10.80;;
59074;SDS011;44860;53.020;6.738;2023-04-15T03:58:02;15.82;;;11.30;;
59074;SDS011;44860;53.020;6.738;2023-04-15T04:00:28;14.38;;;11.40;;
59074;SDS011;44860;53.020;6.738;2023-04-15T04:02:54;15.85;;;11.45;;
59074;SDS011;44860;53.020;6.738;2023-04-15T04:05:20;16.20;;;11.45;;
59074;SDS011;44860;53.020;6.738;2023-04-15T04:07:45;15.38;;;11.30;;
59074;SDS011;44860;53.020;6.738;2023-04-15T04:10:11;14.98;;;11.52;;
59074;SDS011;44860;53.020;6.738;2023-04-15T04:12:37;19.92;;;13.52;;
59074;SDS011;44860;53.020;6.738;2023-04-15T04:15:03;17.90;;;12.20;;
59074;SDS011;44860;53.020;6.738;2023-04-15T04:17:29;16.63;;;12.85;;
59074;SDS011;44860;53.020;6.738;2023-04-15T04:19:54;17.40;;;12.88;;
59074;SDS011;44860;53.020;6.738;2023-04-15T04:22:23;17.15;;;12.93;;
59074;SDS011;44860;53.020;6.738;2023-04-15T04:24:49;15.35;;;12.77;;
59074;SDS011;44860;53.020;6.738;2023-04-15T04:27:15;16.77;;;13.57;;
59074;SDS011;44860;53.020;6.738;2023-04-15T04:29:41;19.85;;;13.50;;
59074;SDS011;44860;53.020;6.738;2023-04-15T04:32:07;20.80;;;14.05;;
59074;SDS011;44860;53.020;6.738;2023-04-15T04:34:32;17.58;;;14.13;;
59074;SDS011;44860;53.020;6.738;2023-04-15T04:36:58;19.50;;;14.95;;
59074;SDS011;44860;53.020;6.738;2023-04-15T04:39:24;20.00;;;14.45;;
59074;SDS011;44860;53.020;6.738;2023-04-15T04:41:49;21.45;;;15.35;;
59074;SDS011;44860;53.020;6.738;2023-04-15T04:44:16;22.13;;;15.38;;
59074;SDS011;44860;53.020;6.738;2023-04-15T04:46:42;24.15;;;16.20;;
59074;SDS011;44860;53.020;6.738;2023-04-15T04:49:08;21.65;;;15.68;;
59074;SDS011;44860;53.020;6.738;2023-04-15T04:51:33;21.88;;;16.67;;
59074;SDS011;44860;53.020;6.738;2023-04-15T04:53:59;23.10;;;16.95;;
59074;SDS011;44860;53.020;6.738;2023-04-15T04:56:25;22.67;;;17.05;;
59074;SDS011;44860;53.020;6.738;2023-04-15T04:58:51;25.05;;;17.33;;
59074;SDS011;44860;53.020;6.738;2023-04-15T05:01:17;23.75;;;17.67;;
59074;SDS011;44860;53.020;6.738;2023-04-15T05:03:42;23.33;;;17.15;;
59074;SDS011;44860;53.020;6.738;2023-04-15T05:06:08;25.05;;;17.20;;
59074;SDS011;44860;53.020;6.738;2023-04-15T05:08:34;23.55;;;17.83;;
59074;SDS011;44860;53.020;6.738;2023-04-15T05:11:00;21.83;;;16.50;;
59074;SDS011;44860;53.020;6.738;2023-04-15T05:13:27;20.73;;;15.65;;
59074;SDS011;44860;53.020;6.738;2023-04-15T05:15:54;21.35;;;15.95;;
59074;SDS011;44860;53.020;6.738;2023-04-15T05:18:19;21.38;;;15.40;;
59074;SDS011;44860;53.020;6.738;2023-04-15T05:20:45;20.98;;;14.70;;
59074;SDS011;44860;53.020;6.738;2023-04-15T05:23:11;20.48;;;15.57;;
59074;SDS011;44860;53.020;6.738;2023-04-15T05:25:36;22.38;;;16.52;;
59074;SDS011;44860;53.020;6.738;2023-04-15T05:28:02;24.83;;;17.25;;
59074;SDS011;44860;53.020;6.738;2023-04-15T05:30:28;22.02;;;16.35;;
59074;SDS011;44860;53.020;6.738;2023-04-15T05:32:53;23.10;;;17.15;;
59074;SDS011;44860;53.020;6.738;2023-04-15T05:35:19;25.92;;;17.85;;
59074;SDS011;44860;53.020;6.738;2023-04-15T05:37:45;26.92;;;18.73;;
59074;SDS011;44860;53.020;6.738;2023-04-15T05:40:10;25.42;;;18.20;;
59074;SDS011;44860;53.020;6.738;2023-04-15T05:42:36;23.27;;;17.02;;
59074;SDS011;44860;53.020;6.738;2023-04-15T05:45:02;24.10;;;16.55;;
59074;SDS011;44860;53.020;6.738;2023-04-15T05:47:33;24.33;;;17.63;;
59074;SDS011;44860;53.020;6.738;2023-04-15T05:50:02;24.58;;;16.92;;
59074;SDS011;44860;53.020;6.738;2023-04-15T05:52:28;26.17;;;18.02;;
59074;SDS011;44860;53.020;6.738;2023-04-15T05:54:53;23.75;;;17.50;;
59074;SDS011;44860;53.020;6.738;2023-04-15T05:57:19;26.23;;;18.45;;
59074;SDS011;44860;53.020;6.738;2023-04-15T05:59:45;25.10;;;17.95;;
59074;SDS011;44860;53.020;6.738;2023-04-15T06:02:10;25.02;;;18.05;;
59074;SDS011;44860;53.020;6.738;2023-04-15T06:04:37;24.35;;;17.00;;
59074;SDS011;44860;53.020;6.738;2023-04-15T06:07:03;25.30;;;18.20;;
59074;SDS011;44860;53.020;6.738;2023-04-15T06:09:29;24.77;;;17.77;;
59074;SDS011;44860;53.020;6.738;2023-04-15T06:11:55;25.70;;;18.40;;
59074;SDS011;44860;53.020;6.738;2023-04-15T06:14:21;23.85;;;18.80;;
59074;SDS011;44860;53.020;6.738;2023-04-15T06:16:47;22.80;;;17.17;;
59074;SDS011;44860;53.020;6.738;2023-04-15T06:19:13;24.35;;;17.58;;
59074;SDS011;44860;53.020;6.738;2023-04-15T06:21:38;24.95;;;18.23;;
59074;SDS011;44860;53.020;6.738;2023-04-15T06:24:04;26.45;;;17.38;;
59074;SDS011;44860;53.020;6.738;2023-04-15T06:26:30;24.38;;;17.17;;
59074;SDS011;44860;53.020;6.738;2023-04-15T06:28:56;24.83;;;18.13;;
59074;SDS011;44860;53.020;6.738;2023-04-15T06:31:21;23.80;;;17.95;;
59074;SDS011;44860;53.020;6.738;2023-04-15T06:33:47;23.65;;;17.40;;
59074;SDS011;44860;53.020;6.738;2023-04-15T06:36:13;23.83;;;18.13;;
59074;SDS011;44860;53.020;6.738;2023-04-15T06:38:39;22.85;;;17.20;;
59074;SDS011;44860;53.020;6.738;2023-04-15T06:41:05;24.60;;;17.42;;
59074;SDS011;44860;53.020;6.738;2023-04-15T06:43:31;24.13;;;17.20;;
59074;SDS011;44860;53.020;6.738;2023-04-15T06:45:57;22.33;;;16.90;;
59074;SDS011;44860;53.020;6.738;2023-04-15T06:48:22;24.38;;;17.25;;
59074;SDS011;44860;53.020;6.738;2023-04-15T06:50:48;26.25;;;17.58;;
59074;SDS011;44860;53.020;6.738;2023-04-15T06:53:14;24.15;;;17.48;;
59074;SDS011;44860;53.020;6.738;2023-04-15T06:55:40;23.50;;;17.98;;
59074;SDS011;44860;53.020;6.738;2023-04-15T06:58:06;21.88;;;16.38;;
59074;SDS011;44860;53.020;6.738;2023-04-15T07:00:32;22.80;;;16.00;;
59074;SDS011;44860;53.020;6.738;2023-04-15T07:02:58;22.17;;;16.42;;
59074;SDS011;44860;53.020;6.738;2023-04-15T07:05:28;23.92;;;17.15;;
59074;SDS011;44860;53.020;6.738;2023-04-15T07:07:55;21.33;;;16.50;;
59074;SDS011;44860;53.020;6.738;2023-04-15T07:10:21;23.17;;;15.98;;
59074;SDS011;44860;53.020;6.738;2023-04-15T07:12:47;21.00;;;15.05;;
59074;SDS011;44860;53.020;6.738;2023-04-15T07:15:13;21.08;;;15.30;;
59074;SDS011;44860;53.020;6.738;2023-04-15T07:17:40;17.70;;;13.43;;
59074;SDS011;44860;53.020;6.738;2023-04-15T07:20:07;18.52;;;14.68;;
59074;SDS011;44860;53.020;6.738;2023-04-15T07:22:33;19.40;;;13.57;;
59074;SDS011;44860;53.020;6.738;2023-04-15T07:24:58;19.48;;;12.48;;
59074;SDS011;44860;53.020;6.738;2023-04-15T07:27:24;17.75;;;12.30;;
59074;SDS011;44860;53.020;6.738;2023-04-15T07:29:51;17.92;;;12.10;;
59074;SDS011;44860;53.020;6.738;2023-04-15T07:32:17;16.05;;;11.80;;
59074;SDS011;44860;53.020;6.738;2023-04-15T07:34:43;16.35;;;11.90;;
59074;SDS011;44860;53.020;6.738;2023-04-15T07:37:09;17.08;;;11.00;;
59074;SDS011;44860;53.020;6.738;2023-04-15T07:39:34;18.85;;;11.00;;
59074;SDS011;44860;53.020;6.738;2023-04-15T07:42:01;15.52;;;11.07;;
59074;SDS011;44860;53.020;6.738;2023-04-15T07:44:28;14.88;;;10.18;;
59074;SDS011;44860;53.020;6.738;2023-04-15T07:46:54;14.63;;;9.43;;
59074;SDS011;44860;53.020;6.738;2023-04-15T07:49:23;13.95;;;8.88;;
59074;SDS011;44860;53.020;6.738;2023-04-15T07:51:48;12.43;;;9.00;;
59074;SDS011;44860;53.020;6.738;2023-04-15T07:54:15;13.10;;;8.27;;
59074;SDS011;44860;53.020;6.738;2023-04-15T07:56:40;13.30;;;7.80;;
59074;SDS011;44860;53.020;6.738;2023-04-15T07:59:06;12.00;;;7.10;;
59074;SDS011;44860;53.020;6.738;2023-04-15T08:01:33;11.45;;;7.55;;
59074;SDS011;44860;53.020;6.738;2023-04-15T08:03:59;11.15;;;8.27;;
59074;SDS011;44860;53.020;6.738;2023-04-15T08:06:25;11.93;;;8.20;;
59074;SDS011;44860;53.020;6.738;2023-04-15T08:08:51;12.77;;;8.00;;
59074;SDS011;44860;53.020;6.738;2023-04-15T08:11:18;12.15;;;8.52;;
59074;SDS011;44860;53.020;6.738;2023-04-15T08:13:45;12.23;;;7.63;;
59074;SDS011;44860;53.020;6.738;2023-04-15T08:18:43;11.52;;;7.72;;
59074;SDS011;44860;53.020;6.738;2023-04-15T08:21:10;13.60;;;7.80;;
59074;SDS011;44860;53.020;6.738;2023-04-15T08:23:35;11.07;;;7.50;;
59074;SDS011;44860;53.020;6.738;2023-04-15T08:26:02;10.60;;;7.47;;
59074;SDS011;44860;53.020;6.738;2023-04-15T08:28:28;12.05;;;7.10;;
59074;SDS011;44860;53.020;6.738;2023-04-15T08:30:53;11.15;;;6.25;;
59074;SDS011;44860;53.020;6.738;2023-04-15T08:33:20;9.80;;;6.00;;
59074;SDS011;44860;53.020;6.738;2023-04-15T08:35:45;9.40;;;5.38;;
59074;SDS011;44860;53.020;6.738;2023-04-15T08:38:12;6.47;;;4.93;;
59074;SDS011;44860;53.020;6.738;2023-04-15T08:40:41;10.07;;;5.30;;
59074;SDS011;44860;53.020;6.738;2023-04-15T08:43:09;7.75;;;4.65;;
59074;SDS011;44860;53.020;6.738;2023-04-15T08:45:37;7.57;;;5.03;;
59074;SDS011;44860;53.020;6.738;2023-04-15T08:48:03;8.95;;;5.60;;
59074;SDS011;44860;53.020;6.738;2023-04-15T08:50:30;11.00;;;5.45;;
59074;SDS011;44860;53.020;6.738;2023-04-15T08:52:57;9.82;;;5.80;;
59074;SDS011;44860;53.020;6.738;2023-04-15T08:55:25;7.85;;;4.97;;
59074;SDS011;44860;53.020;6.738;2023-04-15T08:57:54;8.25;;;4.75;;
59074;SDS011;44860;53.020;6.738;2023-04-15T09:00:20;8.25;;;4.72;;
59074;SDS011;44860;53.020;6.738;2023-04-15T09:02:47;8.48;;;4.70;;
59074;SDS011;44860;53.020;6.738;2023-04-15T09:05:13;10.30;;;4.75;;
59074;SDS011;44860;53.020;6.738;2023-04-15T09:07:38;6.32;;;4.07;;
59074;SDS011;44860;53.020;6.738;2023-04-15T09:10:04;7.75;;;3.92;;
59074;SDS011;44860;53.020;6.738;2023-04-15T09:12:33;7.00;;;4.10;;
59074;SDS011;44860;53.020;6.738;2023-04-15T09:15:02;6.47;;;4.28;;
59074;SDS011;44860;53.020;6.738;2023-04-15T09:17:28;7.75;;;3.88;;
59074;SDS011;44860;53.020;6.738;2023-04-15T09:20:07;4.88;;;3.72;;
59074;SDS011;44860;53.020;6.738;2023-04-15T09:22:34;23.05;;;17.48;;
59074;SDS011;44860;53.020;6.738;2023-04-15T09:25:02;6.25;;;3.40;;
59074;SDS011;44860;53.020;6.738;2023-04-15T09:27:28;8.50;;;4.03;;
59074;SDS011;44860;53.020;6.738;2023-04-15T09:29:53;4.13;;;3.17;;
59074;SDS011;44860;53.020;6.738;2023-04-15T09:32:19;5.55;;;3.30;;
59074;SDS011;44860;53.020;6.738;2023-04-15T09:34:48;6.97;;;3.75;;
59074;SDS011;44860;53.020;6.738;2023-04-15T09:37:14;7.22;;;4.03;;
59074;SDS011;44860;53.020;6.738;2023-04-15T09:39:46;7.15;;;3.40;;
59074;SDS011;44860;53.020;6.738;2023-04-15T09:42:14;10.95;;;4.95;;
59074;SDS011;44860;53.020;6.738;2023-04-15T09:44:41;5.47;;;3.30;;
59074;SDS011;44860;53.020;6.738;2023-04-15T09:47:07;3.72;;;2.75;;
59074;SDS011;44860;53.020;6.738;2023-04-15T09:49:33;6.00;;;2.97;;
59074;SDS011;44860;53.020;6.738;2023-04-15T09:51:59;3.92;;;3.03;;
59074;SDS011;44860;53.020;6.738;2023-04-15T09:54:35;4.20;;;3.10;;
59074;SDS011;44860;53.020;6.738;2023-04-15T09:57:08;4.10;;;3.13;;
59074;SDS011;44860;53.020;6.738;2023-04-15T09:59:34;5.85;;;3.70;;
59074;SDS011;44860;53.020;6.738;2023-04-15T10:02:00;4.85;;;3.33;;
59074;SDS011;44860;53.020;6.738;2023-04-15T10:04:30;5.63;;;3.33;;
59074;SDS011;44860;53.020;6.738;2023-04-15T10:06:59;6.22;;;3.50;;
59074;SDS011;44860;53.020;6.738;2023-04-15T10:09:27;5.03;;;3.42;;
59074;SDS011;44860;53.020;6.738;2023-04-15T10:11:54;4.25;;;3.13;;
59074;SDS011;44860;53.020;6.738;2023-04-15T10:14:20;5.35;;;3.70;;
59074;SDS011;44860;53.020;6.738;2023-04-15T10:16:46;5.45;;;3.35;;
59074;SDS011;44860;53.020;6.738;2023-04-15T10:19:13;4.72;;;3.25;;
59074;SDS011;44860;53.020;6.738;2023-04-15T10:21:42;4.82;;;2.83;;
59074;SDS011;44860;53.020;6.738;2023-04-15T10:24:09;5.32;;;3.22;;
59074;SDS011;44860;53.020;6.738;2023-04-15T10:26:35;8.35;;;3.13;;
59074;SDS011;44860;53.020;6.738;2023-04-15T10:29:02;5.90;;;3.15;;
59074;SDS011;44860;53.020;6.738;2023-04-15T10:31:28;5.60;;;3.15;;
59074;SDS011;44860;53.020;6.738;2023-04-15T10:33:54;5.40;;;3.10;;
59074;SDS011;44860;53.020;6.738;2023-04-15T10:36:21;5.47;;;3.20;;
59074;SDS011;44860;53.020;6.738;2023-04-15T10:38:47;6.82;;;3.25;;
59074;SDS011;44860;53.020;6.738;2023-04-15T10:41:34;6.95;;;3.13;;
59074;SDS011;44860;53.020;6.738;2023-04-15T10:44:03;6.47;;;2.88;;
59074;SDS011;44860;53.020;6.738;2023-04-15T10:49:06;5.18;;;2.85;;
59074;SDS011;44860;53.020;6.738;2023-04-15T10:51:32;5.72;;;2.80;;
59074;SDS011;44860;53.020;6.738;2023-04-15T10:53:58;4.85;;;2.90;;
59074;SDS011;44860;53.020;6.738;2023-04-15T10:56:24;8.60;;;2.67;;
59074;SDS011;44860;53.020;6.738;2023-04-15T10:58:50;5.32;;;2.80;;
59074;SDS011;44860;53.020;6.738;2023-04-15T11:01:16;4.03;;;2.65;;
59074;SDS011;44860;53.020;6.738;2023-04-15T11:03:44;6.75;;;3.00;;
59074;SDS011;44860;53.020;6.738;2023-04-15T11:06:10;5.50;;;2.95;;
59074;SDS011;44860;53.020;6.738;2023-04-15T11:08:55;5.25;;;3.00;;
59074;SDS011;44860;53.020;6.738;2023-04-15T11:14:26;8.52;;;3.10;;
59074;SDS011;44860;53.020;6.738;2023-04-15T11:16:52;7.45;;;3.00;;
59074;SDS011;44860;53.020;6.738;2023-04-15T11:19:17;7.75;;;3.20;;
59074;SDS011;44860;53.020;6.738;2023-04-15T11:21:43;7.85;;;3.28;;
59074;SDS011;44860;53.020;6.738;2023-04-15T11:24:09;9.95;;;4.47;;
59074;SDS011;44860;53.020;6.738;2023-04-15T11:26:34;6.70;;;3.40;;
59074;SDS011;44860;53.020;6.738;2023-04-15T11:29:00;9.15;;;3.47;;
59074;SDS011;44860;53.020;6.738;2023-04-15T11:31:26;7.88;;;3.55;;
59074;SDS011;44860;53.020;6.738;2023-04-15T11:33:53;6.97;;;3.22;;
59074;SDS011;44860;53.020;6.738;2023-04-15T11:36:26;7.88;;;3.50;;
59074;SDS011;44860;53.020;6.738;2023-04-15T11:38:53;6.68;;;3.33;;
59074;SDS011;44860;53.020;6.738;2023-04-15T11:41:23;12.13;;;3.10;;
59074;SDS011;44860;53.020;6.738;2023-04-15T11:43:49;8.52;;;3.25;;
59074;SDS011;44860;53.020;6.738;2023-04-15T11:46:15;6.97;;;3.15;;
59074;SDS011;44860;53.020;6.738;2023-04-15T11:48:44;6.35;;;2.75;;
59074;SDS011;44860;53.020;6.738;2023-04-15T11:51:11;9.65;;;3.05;;
59074;SDS011;44860;53.020;6.738;2023-04-15T11:56:24;9.60;;;2.80;;
59074;SDS011;44860;53.020;6.738;2023-04-15T11:58:51;8.50;;;2.50;;
59074;SDS011;44860;53.020;6.738;2023-04-15T12:01:18;7.78;;;2.40;;
59074;SDS011;44860;53.020;6.738;2023-04-15T12:03:44;7.18;;;2.80;;
59074;SDS011;44860;53.020;6.738;2023-04-15T12:06:17;5.88;;;2.72;;
59074;SDS011;44860;53.020;6.738;2023-04-15T12:11:19;8.95;;;2.60;;
59074;SDS011;44860;53.020;6.738;2023-04-15T12:14:25;8.73;;;2.50;;
59074;SDS011;44860;53.020;6.738;2023-04-15T12:16:44;8.50;;;2.85;;
59074;SDS011;44860;53.020;6.738;2023-04-15T12:19:13;10.18;;;2.67;;
59074;SDS011;44860;53.020;6.738;2023-04-15T12:21:42;7.88;;;2.90;;
59074;SDS011;44860;53.020;6.738;2023-04-15T12:24:10;10.75;;;3.00;;
59074;SDS011;44860;53.020;6.738;2023-04-15T12:29:09;7.38;;;2.75;;
59074;SDS011;44860;53.020;6.738;2023-04-15T12:31:36;8.00;;;3.20;;
59074;SDS011;44860;53.020;6.738;2023-04-15T12:34:10;7.63;;;2.70;;
59074;SDS011;44860;53.020;6.738;2023-04-15T12:36:38;6.72;;;2.90;;
59074;SDS011;44860;53.020;6.738;2023-04-15T12:39:04;8.38;;;2.30;;
59074;SDS011;44860;53.020;6.738;2023-04-15T12:41:33;7.32;;;2.35;;
59074;SDS011;44860;53.020;6.738;2023-04-15T12:43:59;8.73;;;2.90;;
59074;SDS011;44860;53.020;6.738;2023-04-15T12:46:24;7.53;;;2.60;;
59074;SDS011;44860;53.020;6.738;2023-04-15T12:48:51;9.25;;;2.80;;
59074;SDS011;44860;53.020;6.738;2023-04-15T12:51:17;8.43;;;2.83;;
59074;SDS011;44860;53.020;6.738;2023-04-15T12:53:45;9.05;;;2.50;;
59074;SDS011;44860;53.020;6.738;2023-04-15T12:56:11;8.45;;;2.63;;
59074;SDS011;44860;53.020;6.738;2023-04-15T12:58:37;8.35;;;2.53;;
59074;SDS011;44860;53.020;6.738;2023-04-15T13:01:03;8.43;;;2.72;;
59074;SDS011;44860;53.020;6.738;2023-04-15T13:03:28;9.18;;;2.97;;
59074;SDS011;44860;53.020;6.738;2023-04-15T13:05:54;4.93;;;2.30;;
59074;SDS011;44860;53.020;6.738;2023-04-15T13:08:21;7.88;;;2.65;;
59074;SDS011;44860;53.020;6.738;2023-04-15T13:10:47;12.55;;;3.33;;
59074;SDS011;44860;53.020;6.738;2023-04-15T13:13:13;11.85;;;2.80;;
59074;SDS011;44860;53.020;6.738;2023-04-15T13:15:38;10.68;;;2.70;;
59074;SDS011;44860;53.020;6.738;2023-04-15T13:18:05;8.18;;;2.63;;
59074;SDS011;44860;53.020;6.738;2023-04-15T13:20:32;8.38;;;2.53;;
59074;SDS011;44860;53.020;6.738;2023-04-15T13:22:57;16.33;;;3.17;;
59074;SDS011;44860;53.020;6.738;2023-04-15T13:25:23;11.43;;;2.70;;
59074;SDS011;44860;53.020;6.738;2023-04-15T13:27:50;12.30;;;2.97;;
59074;SDS011;44860;53.020;6.738;2023-04-15T13:30:15;8.20;;;2.53;;
59074;SDS011;44860;53.020;6.738;2023-04-15T13:32:41;8.40;;;2.83;;
59074;SDS011;44860;53.020;6.738;2023-04-15T13:35:07;9.13;;;2.78;;
59074;SDS011;44860;53.020;6.738;2023-04-15T13:37:33;9.57;;;3.15;;
59074;SDS011;44860;53.020;6.738;2023-04-15T13:39:58;10.32;;;2.65;;
59074;SDS011;44860;53.020;6.738;2023-04-15T13:42:24;9.60;;;2.40;;
59074;SDS011;44860;53.020;6.738;2023-04-15T13:44:51;10.98;;;2.72;;
59074;SDS011;44860;53.020;6.738;2023-04-15T13:47:20;14.27;;;3.17;;
59074;SDS011;44860;53.020;6.738;2023-04-15T13:49:46;11.45;;;3.33;;
59074;SDS011;44860;53.020;6.738;2023-04-15T13:52:11;8.13;;;2.60;;
59074;SDS011;44860;53.020;6.738;2023-04-15T13:54:37;7.43;;;2.40;;
59074;SDS011;44860;53.020;6.738;2023-04-15T13:57:03;8.93;;;2.30;;
59074;SDS011;44860;53.020;6.738;2023-04-15T13:59:29;14.07;;;2.70;;
59074;SDS011;44860;53.020;6.738;2023-04-15T14:01:55;9.18;;;3.05;;
59074;SDS011;44860;53.020;6.738;2023-04-15T14:04:21;10.70;;;3.28;;
59074;SDS011;44860;53.020;6.738;2023-04-15T14:06:48;9.30;;;2.70;;
59074;SDS011;44860;53.020;6.738;2023-04-15T14:09:14;8.82;;;3.35;;
59074;SDS011;44860;53.020;6.738;2023-04-15T14:11:40;12.55;;;3.13;;
59074;SDS011;44860;53.020;6.738;2023-04-15T14:14:06;12.68;;;2.90;;
59074;SDS011;44860;53.020;6.738;2023-04-15T14:16:32;8.15;;;2.53;;
59074;SDS011;44860;53.020;6.738;2023-04-15T14:18:58;11.30;;;3.05;;
59074;SDS011;44860;53.020;6.738;2023-04-15T14:21:24;11.63;;;3.10;;
59074;SDS011;44860;53.020;6.738;2023-04-15T14:23:54;12.90;;;2.88;;
59074;SDS011;44860;53.020;6.738;2023-04-15T14:26:19;9.70;;;3.05;;
59074;SDS011;44860;53.020;6.738;2023-04-15T14:28:45;9.77;;;3.20;;
59074;SDS011;44860;53.020;6.738;2023-04-15T14:31:12;11.60;;;3.60;;
59074;SDS011;44860;53.020;6.738;2023-04-15T14:33:38;14.75;;;3.47;;
59074;SDS011;44860;53.020;6.738;2023-04-15T14:36:04;14.88;;;3.85;;
59074;SDS011;44860;53.020;6.738;2023-04-15T14:38:33;11.00;;;3.13;;
59074;SDS011;44860;53.020;6.738;2023-04-15T14:41:04;10.77;;;3.38;;
59074;SDS011;44860;53.020;6.738;2023-04-15T14:43:30;10.10;;;3.33;;
59074;SDS011;44860;53.020;6.738;2023-04-15T14:45:56;9.80;;;3.20;;
59074;SDS011;44860;53.020;6.738;2023-04-15T14:48:21;16.63;;;4.07;;